sensor_id;sensor_type;location;lat;lon;timestamp;pressure;altitude;pressure_sealevel;temperature;humidity
43878;BME280;29815;48.184;11.268;2022-08-07T00:00:13;96137.66;;;16.55;100.00
43878;BME280;29815;48.184;11.268;2022-08-07T00:02:46;96143.09;;;16.55;100.00
43878;BME280;29815;48.184;11.268;2022-08-07T00:05:15;96141.47;;;16.54;100.00
43878;BME280;29815;48.184;11.268;2022-08-07T00:07:45;96152.13;;;16.51;100.00
43878;BME280;29815;48.184;11.268;2022-08-07T00:10:25;96155.19;;;16.44;100.00
43878;BME280;29815;48.184;11.268;2022-08-07T00:13:03;96156.09;;;16.40;100.00
43878;BME280;29815;48.184;11.268;2022-08-07T00:15:51;96151.75;;;16.39;100.00
43878;BME280;29815;48.184;11.268;2022-08-07T00:18:24;96149.63;;;16.36;100.00
43878;BME280;29815;48.184;11.268;2022-08-07T00:20:59;96148.31;;;16.33;100.00
43878;BME280;29815;48.184;11.268;2022-08-07T00:23:39;96150.50;;;16.31;100.00
43878;BME280;29815;48.184;11.268;2022-08-07T00:26:10;96160.25;;;16.32;100.00
43878;BME280;29815;48.184;11.268;2022-08-07T00:29:01;96154.31;;;16.30;100.00
43878;BME280;29815;48.184;11.268;2022-08-07T00:31:33;96152.41;;;16.31;100.00
43878;BME280;29815;48.184;11.268;2022-08-07T00:34:09;96144.03;;;16.27;100.00
43878;BME280;29815;48.184;11.268;2022-08-07T00:36:43;96148.88;;;16.30;100.00
43878;BME280;29815;48.184;11.268;2022-08-07T00:39:12;96139.34;;;16.33;100.00
43878;BME280;29815;48.184;11.268;2022-08-07T00:41:48;96137.44;;;16.33;100.00
43878;BME280;29815;48.184;11.268;2022-08-07T00:44:30;96142.28;;;16.36;100.00
43878;BME280;29815;48.184;11.268;2022-08-07T00:47:00;96133.84;;;16.38;100.00
43878;BME280;29815;48.184;11.268;2022-08-07T00:49:33;96137.06;;;16.40;100.00
43878;BME280;29815;48.184;11.268;2022-08-07T00:52:23;96137.88;;;16.40;100.00
43878;BME280;29815;48.184;11.268;2022-08-07T00:54:53;96134.03;;;16.41;100.00
43878;BME280;29815;48.184;11.268;2022-08-07T00:57:23;96132.66;;;16.44;100.00
43878;BME280;29815;48.184;11.268;2022-08-07T01:00:04;96128.31;;;16.43;100.00
43878;BME280;29815;48.184;11.268;2022-08-07T01:02:35;96128.84;;;16.45;100.00
43878;BME280;29815;48.184;11.268;2022-08-07T01:05:08;96120.41;;;16.46;100.00
43878;BME280;29815;48.184;11.268;2022-08-07T01:07:47;96130.44;;;16.46;100.00
43878;BME280;29815;48.184;11.268;2022-08-07T01:10:17;96135.06;;;16.45;100.00
43878;BME280;29815;48.184;11.268;2022-08-07T01:12:48;96126.63;;;16.47;100.00
43878;BME280;29815;48.184;11.268;2022-08-07T01:15:26;96120.69;;;16.45;100.00
43878;BME280;29815;48.184;11.268;2022-08-07T01:18:16;96123.91;;;16.47;100.00
43878;BME280;29815;48.184;11.268;2022-08-07T01:21:07;96116.06;;;16.45;100.00
43878;BME280;29815;48.184;11.268;2022-08-07T01:23:56;96115.78;;;16.47;100.00
43878;BME280;29815;48.184;11.268;2022-08-07T01:26:27;96116.06;;;16.45;100.00
43878;BME280;29815;48.184;11.268;2022-08-07T01:28:59;96119.06;;;16.44;100.00
43878;BME280;29815;48.184;11.268;2022-08-07T01:31:31;96115.34;;;16.40;100.00
43878;BME280;29815;48.184;11.268;2022-08-07T01:34:16;96111.81;;;16.39;100.00
43878;BME280;29815;48.184;11.268;2022-08-07T01:36:49;96112.13;;;16.38;100.00
43878;BME280;29815;48.184;11.268;2022-08-07T01:39:28;96108.38;;;16.34;100.00
43878;BME280;29815;48.184;11.268;2022-08-07T01:42:28;96106.50;;;16.29;100.00
43878;BME280;29815;48.184;11.268;2022-08-07T01:45:07;96120.38;;;16.28;100.00
43878;BME280;29815;48.184;11.268;2022-08-07T01:47:49;96108.50;;;16.23;100.00
43878;BME280;29815;48.184;11.268;2022-08-07T01:50:40;96113.09;;;16.23;100.00
43878;BME280;29815;48.184;11.268;2022-08-07T01:53:16;96109.34;;;16.19;100.00
43878;BME280;29815;48.184;11.268;2022-08-07T01:56:14;96107.22;;;16.16;100.00
43878;BME280;29815;48.184;11.268;2022-08-07T01:58:51;96101.28;;;16.14;100.00
43878;BME280;29815;48.184;11.268;2022-08-07T02:01:24;96101.34;;;16.09;100.00
43878;BME280;29815;48.184;11.268;2022-08-07T02:04:24;96102.75;;;16.06;100.00
43878;BME280;29815;48.184;11.268;2022-08-07T02:07:02;96100.31;;;16.05;100.00
43878;BME280;29815;48.184;11.268;2022-08-07T02:09:34;96093.03;;;16.00;100.00
43878;BME280;29815;48.184;11.268;2022-08-07T02:12:22;96095.53;;;15.97;100.00
43878;BME280;29815;48.184;11.268;2022-08-07T02:15:00;96091.19;;;15.96;100.00
43878;BME280;29815;48.184;11.268;2022-08-07T02:17:39;96087.97;;;15.94;100.00
43878;BME280;29815;48.184;11.268;2022-08-07T02:20:17;96078.72;;;15.95;100.00
43878;BME280;29815;48.184;11.268;2022-08-07T02:22:57;96083.06;;;15.96;100.00
43878;BME280;29815;48.184;11.268;2022-08-07T02:25:37;96080.09;;;15.92;100.00
43878;BME280;29815;48.184;11.268;2022-08-07T02:28:29;96082.81;;;15.92;100.00
43878;BME280;29815;48.184;11.268;2022-08-07T02:31:05;96071.72;;;15.88;100.00
43878;BME280;29815;48.184;11.268;2022-08-07T02:33:55;96076.97;;;15.85;100.00
43878;BME280;29815;48.184;11.268;2022-08-07T02:36:48;96075.63;;;15.82;100.00
43878;BME280;29815;48.184;11.268;2022-08-07T02:39:19;96079.44;;;15.81;100.00
43878;BME280;29815;48.184;11.268;2022-08-07T02:42:16;96074.88;;;15.77;100.00
43878;BME280;29815;48.184;11.268;2022-08-07T02:44:50;96074.34;;;15.75;100.00
43878;BME280;29815;48.184;11.268;2022-08-07T02:47:25;96084.97;;;15.71;100.00
43878;BME280;29815;48.184;11.268;2022-08-07T02:50:12;96074.41;;;15.70;100.00
43878;BME280;29815;48.184;11.268;2022-08-07T02:52:52;96068.19;;;15.69;100.00
43878;BME280;29815;48.184;11.268;2022-08-07T02:55:33;96071.47;;;15.66;100.00
43878;BME280;29815;48.184;11.268;2022-08-07T02:58:30;96086.41;;;15.64;100.00
43878;BME280;29815;48.184;11.268;2022-08-07T03:01:03;96088.59;;;15.62;100.00
43878;BME280;29815;48.184;11.268;2022-08-07T03:03:46;96089.22;;;15.59;100.00
43878;BME280;29815;48.184;11.268;2022-08-07T03:06:23;96092.22;;;15.57;100.00
43878;BME280;29815;48.184;11.268;2022-08-07T03:09:04;96097.88;;;15.55;100.00
43878;BME280;29815;48.184;11.268;2022-08-07T03:11:40;96101.16;;;15.52;100.00
43878;BME280;29815;48.184;11.268;2022-08-07T03:14:27;96090.59;;;15.51;100.00
43878;BME280;29815;48.184;11.268;2022-08-07T03:16:58;96091.69;;;15.50;100.00
43878;BME280;29815;48.184;11.268;2022-08-07T03:19:33;96089.28;;;15.48;100.00
43878;BME280;29815;48.184;11.268;2022-08-07T03:22:07;96092.28;;;15.47;100.00
43878;BME280;29815;48.184;11.268;2022-08-07T03:24:47;96092.28;;;15.47;100.00
43878;BME280;29815;48.184;11.268;2022-08-07T03:27:18;96097.19;;;15.45;100.00
43878;BME280;29815;48.184;11.268;2022-08-07T03:30:01;96096.13;;;15.41;100.00
43878;BME280;29815;48.184;11.268;2022-08-07T03:32:39;96101.03;;;15.39;100.00
43878;BME280;29815;48.184;11.268;2022-08-07T03:35:28;96103.78;;;15.34;100.00
43878;BME280;29815;48.184;11.268;2022-08-07T03:38:13;96100.56;;;15.32;100.00
43878;BME280;29815;48.184;11.268;2022-08-07T03:40:49;96099.25;;;15.29;100.00
43878;BME280;29815;48.184;11.268;2022-08-07T03:43:26;96101.16;;;15.29;100.00
43878;BME280;29815;48.184;11.268;2022-08-07T03:46:04;96095.19;;;15.27;100.00
43878;BME280;29815;48.184;11.268;2022-08-07T03:48:49;96091.69;;;15.26;100.00
43878;BME280;29815;48.184;11.268;2022-08-07T03:51:35;96090.34;;;15.23;100.00
43878;BME280;29815;48.184;11.268;2022-08-07T03:54:16;96094.97;;;15.23;100.00
43878;BME280;29815;48.184;11.268;2022-08-07T03:57:08;96081.69;;;15.21;100.00
43878;BME280;29815;48.184;11.268;2022-08-07T04:00:00;96084.16;;;15.18;100.00
43878;BME280;29815;48.184;11.268;2022-08-07T04:02:46;96084.16;;;15.18;100.00
43878;BME280;29815;48.184;11.268;2022-08-07T04:05:29;96085.25;;;15.17;100.00
43878;BME280;29815;48.184;11.268;2022-08-07T04:08:14;96082.81;;;15.15;100.00
43878;BME280;29815;48.184;11.268;2022-08-07T04:10:48;96088.81;;;15.12;100.00
43878;BME280;29815;48.184;11.268;2022-08-07T04:13:40;96085.84;;;15.09;100.00
43878;BME280;29815;48.184;11.268;2022-08-07T04:16:30;96081.81;;;15.06;100.00
43878;BME280;29815;48.184;11.268;2022-08-07T04:19:07;96080.19;;;15.05;100.00
43878;BME280;29815;48.184;11.268;2022-08-07T04:21:48;96076.97;;;15.03;100.00
43878;BME280;29815;48.184;11.268;2022-08-07T04:24:41;96083.22;;;15.04;100.00
43878;BME280;29815;48.184;11.268;2022-08-07T04:27:13;96082.91;;;15.05;100.00
43878;BME280;29815;48.184;11.268;2022-08-07T04:29:56;96085.59;;;15.05;100.00
43878;BME280;29815;48.184;11.268;2022-08-07T04:32:41;96091.34;;;15.04;100.00
43878;BME280;29815;48.184;11.268;2022-08-07T04:35:17;96083.50;;;15.02;100.00
43878;BME280;29815;48.184;11.268;2022-08-07T04:37:50;96086.22;;;15.02;100.00
43878;BME280;29815;48.184;11.268;2022-08-07T04:40:42;96088.09;;;15.02;100.00
43878;BME280;29815;48.184;11.268;2022-08-07T04:43:43;96091.34;;;15.04;100.00
43878;BME280;29815;48.184;11.268;2022-08-07T04:46:43;96085.13;;;15.03;100.00
43878;BME280;29815;48.184;11.268;2022-08-07T04:49:44;96081.31;;;15.04;100.00
43878;BME280;29815;48.184;11.268;2022-08-07T04:52:44;96086.41;;;15.06;100.00
43878;BME280;29815;48.184;11.268;2022-08-07T04:55:31;96082.09;;;15.05;100.00
43878;BME280;29815;48.184;11.268;2022-08-07T04:58:36;96081.00;;;15.06;100.00
43878;BME280;29815;48.184;11.268;2022-08-07T05:01:39;96082.09;;;15.05;100.00
43878;BME280;29815;48.184;11.268;2022-08-07T05:04:27;96080.72;;;15.07;100.00
43878;BME280;29815;48.184;11.268;2022-08-07T05:07:10;96085.03;;;15.08;100.00
43878;BME280;29815;48.184;11.268;2022-08-07T05:10:10;96079.34;;;15.10;100.00
43878;BME280;29815;48.184;11.268;2022-08-07T05:12:49;96074.72;;;15.10;100.00
43878;BME280;29815;48.184;11.268;2022-08-07T05:15:33;96088.28;;;15.10;100.00
43878;BME280;29815;48.184;11.268;2022-08-07T05:18:10;96086.63;;;15.14;100.00
43878;BME280;29815;48.184;11.268;2022-08-07T05:20:47;96086.34;;;15.16;100.00
43878;BME280;29815;48.184;11.268;2022-08-07T05:23:28;96092.56;;;15.16;100.00
43878;BME280;29815;48.184;11.268;2022-08-07T05:26:05;96092.81;;;15.20;100.00
43878;BME280;29815;48.184;11.268;2022-08-07T05:28:56;96095.75;;;15.23;100.00
43878;BME280;29815;48.184;11.268;2022-08-07T05:31:53;96096.28;;;15.26;100.00
43878;BME280;29815;48.184;11.268;2022-08-07T05:34:29;96095.44;;;15.30;100.00
43878;BME280;29815;48.184;11.268;2022-08-07T05:37:04;96095.16;;;15.32;100.00
43878;BME280;29815;48.184;11.268;2022-08-07T05:39:41;96095.38;;;15.35;100.00
43878;BME280;29815;48.184;11.268;2022-08-07T05:42:32;96096.69;;;15.38;100.00
43878;BME280;29815;48.184;11.268;2022-08-07T05:45:10;96103.47;;;15.40;100.00
43878;BME280;29815;48.184;11.268;2022-08-07T05:48:04;96098.84;;;15.41;100.00
43878;BME280;29815;48.184;11.268;2022-08-07T05:50:41;96096.09;;;15.46;100.00
43878;BME280;29815;48.184;11.268;2022-08-07T05:53:14;96100.66;;;15.50;100.00
43878;BME280;29815;48.184;11.268;2022-08-07T05:56:04;96098.19;;;15.54;100.00
43878;BME280;29815;48.184;11.268;2022-08-07T05:58:43;96100.06;;;15.59;100.00
43878;BME280;29815;48.184;11.268;2022-08-07T06:01:20;96105.69;;;15.62;100.00
43878;BME280;29815;48.184;11.268;2022-08-07T06:03:54;96108.94;;;15.64;100.00
43878;BME280;29815;48.184;11.268;2022-08-07T06:06:34;96106.44;;;15.68;100.00
43878;BME280;29815;48.184;11.268;2022-08-07T06:09:06;96102.06;;;15.72;100.00
43878;BME280;29815;48.184;11.268;2022-08-07T06:11:41;96104.22;;;15.75;100.00
43878;BME280;29815;48.184;11.268;2022-08-07T06:14:13;96111.50;;;15.79;100.00
43878;BME280;29815;48.184;11.268;2022-08-07T06:16:58;96105.91;;;15.89;100.00
43878;BME280;29815;48.184;11.268;2022-08-07T06:19:37;96100.66;;;15.98;100.00
43878;BME280;29815;48.184;11.268;2022-08-07T06:22:28;96099.22;;;16.06;100.00
43878;BME280;29815;48.184;11.268;2022-08-07T06:25:19;96100.50;;;16.13;100.00
43878;BME280;29815;48.184;11.268;2022-08-07T06:27:50;96094.44;;;16.16;100.00
43878;BME280;29815;48.184;11.268;2022-08-07T06:30:32;96100.09;;;16.20;100.00
43878;BME280;29815;48.184;11.268;2022-08-07T06:33:13;96104.66;;;16.24;100.00
43878;BME280;29815;48.184;11.268;2022-08-07T06:35:46;96108.13;;;16.30;100.00
43878;BME280;29815;48.184;11.268;2022-08-07T06:38:41;96104.16;;;16.41;100.00
43878;BME280;29815;48.184;11.268;2022-08-07T06:41:30;96100.78;;;16.49;100.00
43878;BME280;29815;48.184;11.268;2022-08-07T06:44:34;96103.16;;;16.56;100.00
43878;BME280;29815;48.184;11.268;2022-08-07T06:47:08;96095.81;;;16.56;100.00
43878;BME280;29815;48.184;11.268;2022-08-07T06:49:43;96096.31;;;16.58;100.00
43878;BME280;29815;48.184;11.268;2022-08-07T06:52:20;96099.56;;;16.61;100.00
43878;BME280;29815;48.184;11.268;2022-08-07T06:55:05;96103.03;;;16.66;100.00
43878;BME280;29815;48.184;11.268;2022-08-07T06:58:00;96104.25;;;16.74;100.00
43878;BME280;29815;48.184;11.268;2022-08-07T07:00:39;96103.91;;;16.80;100.00
43878;BME280;29815;48.184;11.268;2022-08-07T07:03:11;96102.44;;;16.88;100.00
43878;BME280;29815;48.184;11.268;2022-08-07T07:05:44;96100.34;;;16.99;100.00
43878;BME280;29815;48.184;11.268;2022-08-07T07:08:31;96090.41;;;17.08;100.00
43878;BME280;29815;48.184;11.268;2022-08-07T07:11:02;96104.44;;;17.15;100.00
43878;BME280;29815;48.184;11.268;2022-08-07T07:13:52;96093.19;;;17.21;100.00
43878;BME280;29815;48.184;11.268;2022-08-07T07:16:33;96095.78;;;17.26;100.00
43878;BME280;29815;48.184;11.268;2022-08-07T07:19:22;96097.59;;;17.31;100.00
43878;BME280;29815;48.184;11.268;2022-08-07T07:22:15;96101.56;;;17.39;100.00
43878;BME280;29815;48.184;11.268;2022-08-07T07:25:06;96093.91;;;17.41;100.00
43878;BME280;29815;48.184;11.268;2022-08-07T07:28:00;96097.06;;;17.48;100.00
43878;BME280;29815;48.184;11.268;2022-08-07T07:30:59;96091.69;;;17.56;100.00
43878;BME280;29815;48.184;11.268;2022-08-07T07:33:34;96088.59;;;17.63;100.00
43878;BME280;29815;48.184;11.268;2022-08-07T07:36:07;96088.53;;;17.68;100.00
43878;BME280;29815;48.184;11.268;2022-08-07T07:38:42;96082.38;;;17.76;100.00
43878;BME280;29815;48.184;11.268;2022-08-07T07:41:16;96080.06;;;17.83;100.00
43878;BME280;29815;48.184;11.268;2022-08-07T07:43:47;96078.53;;;17.91;100.00
43878;BME280;29815;48.184;11.268;2022-08-07T07:46:39;96074.00;;;18.00;100.00
43878;BME280;29815;48.184;11.268;2022-08-07T07:49:25;96082.06;;;18.05;100.00
43878;BME280;29815;48.184;11.268;2022-08-07T07:52:20;96079.44;;;18.14;100.00
43878;BME280;29815;48.184;11.268;2022-08-07T07:54:51;96078.72;;;18.22;100.00
43878;BME280;29815;48.184;11.268;2022-08-07T07:57:22;96072.25;;;18.32;100.00
43878;BME280;29815;48.184;11.268;2022-08-07T08:00:14;96071.41;;;18.45;100.00
43878;BME280;29815;48.184;11.268;2022-08-07T08:03:03;96071.97;;;18.55;100.00
43878;BME280;29815;48.184;11.268;2022-08-07T08:05:37;96063.88;;;18.64;100.00
43878;BME280;29815;48.184;11.268;2022-08-07T08:08:29;96069.91;;;18.75;100.00
43878;BME280;29815;48.184;11.268;2022-08-07T08:11:06;96068.56;;;18.86;100.00
43878;BME280;29815;48.184;11.268;2022-08-07T08:13:47;96067.94;;;18.89;100.00
43878;BME280;29815;48.184;11.268;2022-08-07T08:16:30;96068.41;;;18.91;100.00
43878;BME280;29815;48.184;11.268;2022-08-07T08:19:03;96065.84;;;18.86;100.00
43878;BME280;29815;48.184;11.268;2022-08-07T08:21:56;96069.38;;;18.86;100.00
43878;BME280;29815;48.184;11.268;2022-08-07T08:24:46;96062.31;;;18.85;100.00
43878;BME280;29815;48.184;11.268;2022-08-07T08:27:55;96065.88;;;18.94;100.00
43878;BME280;29815;48.184;11.268;2022-08-07T08:30:31;96074.38;;;18.93;100.00
43878;BME280;29815;48.184;11.268;2022-08-07T08:33:10;96075.25;;;19.02;100.00
43878;BME280;29815;48.184;11.268;2022-08-07T08:35:47;96069.56;;;19.12;100.00
43878;BME280;29815;48.184;11.268;2022-08-07T08:38:25;96068.78;;;19.20;100.00
43878;BME280;29815;48.184;11.268;2022-08-07T08:41:16;96065.19;;;19.34;100.00
43878;BME280;29815;48.184;11.268;2022-08-07T08:44:00;96072.75;;;19.45;100.00
43878;BME280;29815;48.184;11.268;2022-08-07T08:46:39;96072.53;;;19.55;100.00
43878;BME280;29815;48.184;11.268;2022-08-07T08:49:20;96071.00;;;19.72;100.00
43878;BME280;29815;48.184;11.268;2022-08-07T08:52:17;96063.38;;;19.91;100.00
43878;BME280;29815;48.184;11.268;2022-08-07T08:54:58;96061.44;;;20.00;100.00
43878;BME280;29815;48.184;11.268;2022-08-07T08:57:39;96064.06;;;20.14;100.00
43878;BME280;29815;48.184;11.268;2022-08-07T09:00:13;96062.31;;;20.26;100.00
43878;BME280;29815;48.184;11.268;2022-08-07T09:02:48;96070.22;;;20.37;100.00
43878;BME280;29815;48.184;11.268;2022-08-07T09:05:33;96070.91;;;20.42;100.00
43878;BME280;29815;48.184;11.268;2022-08-07T09:08:18;96068.81;;;20.56;100.00
43878;BME280;29815;48.184;11.268;2022-08-07T09:11:03;96075.59;;;20.76;100.00
43878;BME280;29815;48.184;11.268;2022-08-07T09:14:01;96064.16;;;21.00;100.00
43878;BME280;29815;48.184;11.268;2022-08-07T09:16:43;96066.06;;;21.17;100.00
43878;BME280;29815;48.184;11.268;2022-08-07T09:19:23;96063.94;;;21.40;100.00
43878;BME280;29815;48.184;11.268;2022-08-07T09:22:27;96064.56;;;21.54;100.00
43878;BME280;29815;48.184;11.268;2022-08-07T09:25:24;96059.41;;;21.44;100.00
43878;BME280;29815;48.184;11.268;2022-08-07T09:27:59;96069.25;;;21.36;100.00
43878;BME280;29815;48.184;11.268;2022-08-07T09:30:58;96062.97;;;21.36;100.00
43878;BME280;29815;48.184;11.268;2022-08-07T09:33:38;96061.19;;;21.40;100.00
43878;BME280;29815;48.184;11.268;2022-08-07T09:36:28;96065.53;;;21.41;100.00
43878;BME280;29815;48.184;11.268;2022-08-07T09:39:23;96067.47;;;21.49;100.00
43878;BME280;29815;48.184;11.268;2022-08-07T09:42:33;96055.97;;;21.64;100.00
43878;BME280;29815;48.184;11.268;2022-08-07T09:45:11;96056.25;;;21.71;100.00
43878;BME280;29815;48.184;11.268;2022-08-07T09:48:19;96054.00;;;21.73;100.00
43878;BME280;29815;48.184;11.268;2022-08-07T09:51:14;96039.66;;;21.76;100.00
43878;BME280;29815;48.184;11.268;2022-08-07T09:54:18;96038.34;;;21.82;100.00
43878;BME280;29815;48.184;11.268;2022-08-07T09:57:12;96029.56;;;21.89;100.00
43878;BME280;29815;48.184;11.268;2022-08-07T10:00:02;96033.09;;;21.98;100.00
43878;BME280;29815;48.184;11.268;2022-08-07T10:02:57;96038.88;;;22.05;100.00
43878;BME280;29815;48.184;11.268;2022-08-07T10:06:18;96037.72;;;22.15;100.00
43878;BME280;29815;48.184;11.268;2022-08-07T10:09:17;96039.56;;;22.23;100.00
43878;BME280;29815;48.184;11.268;2022-08-07T10:16:11;96032.97;;;22.24;99.37
43878;BME280;29815;48.184;11.268;2022-08-07T10:18:58;96027.75;;;22.31;98.86
43878;BME280;29815;48.184;11.268;2022-08-07T10:21:45;96034.72;;;22.49;100.00
43878;BME280;29815;48.184;11.268;2022-08-07T10:24:57;96021.88;;;22.62;94.60
43878;BME280;29815;48.184;11.268;2022-08-07T10:28:02;96021.34;;;22.69;86.60
43878;BME280;29815;48.184;11.268;2022-08-07T10:30:48;96022.16;;;22.69;86.56
43878;BME280;29815;48.184;11.268;2022-08-07T10:33:35;96025.09;;;22.85;86.89
43878;BME280;29815;48.184;11.268;2022-08-07T10:36:42;96017.41;;;23.11;93.05
43878;BME280;29815;48.184;11.268;2022-08-07T10:39:28;96019.50;;;23.26;87.47
43878;BME280;29815;48.184;11.268;2022-08-07T10:42:14;96022.75;;;23.41;87.17
43878;BME280;29815;48.184;11.268;2022-08-07T10:45:23;96027.41;;;23.61;82.73
43878;BME280;29815;48.184;11.268;2022-08-07T10:48:25;96016.09;;;23.75;86.44
43878;BME280;29815;48.184;11.268;2022-08-07T10:51:06;96018.38;;;23.73;83.82
43878;BME280;29815;48.184;11.268;2022-08-07T10:53:49;96015.16;;;23.83;85.14
43878;BME280;29815;48.184;11.268;2022-08-07T10:56:33;96019.28;;;23.89;81.17
43878;BME280;29815;48.184;11.268;2022-08-07T10:59:14;96020.31;;;23.96;79.18
43878;BME280;29815;48.184;11.268;2022-08-07T11:01:52;96016.22;;;24.03;79.70
43878;BME280;29815;48.184;11.268;2022-08-07T11:04:51;96013.53;;;24.18;79.36
43878;BME280;29815;48.184;11.268;2022-08-07T11:07:39;96008.03;;;24.43;78.84
43878;BME280;29815;48.184;11.268;2022-08-07T11:10:33;96004.34;;;24.51;76.11
43878;BME280;29815;48.184;11.268;2022-08-07T11:13:14;96000.97;;;24.70;77.80
43878;BME280;29815;48.184;11.268;2022-08-07T11:16:09;95993.28;;;25.03;79.40
43878;BME280;29815;48.184;11.268;2022-08-07T11:18:49;95993.16;;;25.27;71.84
43878;BME280;29815;48.184;11.268;2022-08-07T11:21:26;95995.03;;;25.39;70.70
43878;BME280;29815;48.184;11.268;2022-08-07T11:24:03;95993.03;;;25.68;73.22
43878;BME280;29815;48.184;11.268;2022-08-07T11:26:40;95987.88;;;25.98;72.65
43878;BME280;29815;48.184;11.268;2022-08-07T11:29:21;95977.22;;;26.31;74.21
43878;BME280;29815;48.184;11.268;2022-08-07T11:32:11;95982.78;;;26.50;68.48
43878;BME280;29815;48.184;11.268;2022-08-07T11:34:55;95974.50;;;26.70;67.18
43878;BME280;29815;48.184;11.268;2022-08-07T11:37:36;95975.34;;;26.93;69.69
43878;BME280;29815;48.184;11.268;2022-08-07T11:40:44;95984.97;;;27.18;63.85
43878;BME280;29815;48.184;11.268;2022-08-07T11:43:21;95973.81;;;27.34;59.82
43878;BME280;29815;48.184;11.268;2022-08-07T11:46:37;95975.72;;;27.30;61.71
43878;BME280;29815;48.184;11.268;2022-08-07T11:49:21;95967.72;;;27.25;57.47
43878;BME280;29815;48.184;11.268;2022-08-07T11:52:35;95960.91;;;27.42;59.01
43878;BME280;29815;48.184;11.268;2022-08-07T11:55:25;95963.38;;;27.70;61.45
43878;BME280;29815;48.184;11.268;2022-08-07T11:58:27;95963.47;;;28.00;59.71
43878;BME280;29815;48.184;11.268;2022-08-07T12:01:05;95960.88;;;28.10;58.46
43878;BME280;29815;48.184;11.268;2022-08-07T12:04:16;95967.72;;;28.20;55.99
43878;BME280;29815;48.184;11.268;2022-08-07T12:07:16;95958.41;;;28.05;56.46
43878;BME280;29815;48.184;11.268;2022-08-07T12:09:58;95961.28;;;28.12;56.97
43878;BME280;29815;48.184;11.268;2022-08-07T12:12:35;95943.38;;;28.29;53.09
43878;BME280;29815;48.184;11.268;2022-08-07T12:15:12;95942.03;;;28.49;53.30
43878;BME280;29815;48.184;11.268;2022-08-07T12:18:11;95932.38;;;28.66;56.06
43878;BME280;29815;48.184;11.268;2022-08-07T12:21:00;95941.19;;;28.75;53.77
43878;BME280;29815;48.184;11.268;2022-08-07T12:23:45;95945.81;;;28.94;55.97
43878;BME280;29815;48.184;11.268;2022-08-07T12:26:40;95937.97;;;29.03;53.24
43878;BME280;29815;48.184;11.268;2022-08-07T12:29:20;95941.63;;;29.11;54.66
43878;BME280;29815;48.184;11.268;2022-08-07T12:32:11;95936.41;;;29.06;54.15
43878;BME280;29815;48.184;11.268;2022-08-07T12:34:45;95929.19;;;28.94;54.01
43878;BME280;29815;48.184;11.268;2022-08-07T12:37:20;95935.38;;;28.84;53.02
43878;BME280;29815;48.184;11.268;2022-08-07T12:40:10;95938.69;;;28.63;50.63
43878;BME280;29815;48.184;11.268;2022-08-07T12:43:03;95928.13;;;28.76;54.52
43878;BME280;29815;48.184;11.268;2022-08-07T12:45:42;95935.84;;;28.89;55.82
43878;BME280;29815;48.184;11.268;2022-08-07T12:51:24;95925.91;;;29.22;50.71
43878;BME280;29815;48.184;11.268;2022-08-07T12:54:16;95919.88;;;29.50;53.76
43878;BME280;29815;48.184;11.268;2022-08-07T12:57:06;95924.78;;;29.71;52.42
43878;BME280;29815;48.184;11.268;2022-08-07T12:59:47;95930.44;;;29.85;49.73
43878;BME280;29815;48.184;11.268;2022-08-07T13:02:49;95924.09;;;29.88;50.10
43878;BME280;29815;48.184;11.268;2022-08-07T13:05:57;95927.72;;;29.92;53.05
43878;BME280;29815;48.184;11.268;2022-08-07T13:08:59;95917.13;;;30.05;50.71
43878;BME280;29815;48.184;11.268;2022-08-07T13:12:06;95913.59;;;30.11;50.02
43878;BME280;29815;48.184;11.268;2022-08-07T13:14:45;95914.78;;;30.14;51.85
43878;BME280;29815;48.184;11.268;2022-08-07T13:17:32;95906.59;;;30.35;51.62
43878;BME280;29815;48.184;11.268;2022-08-07T13:20:17;95905.34;;;30.25;48.51
43878;BME280;29815;48.184;11.268;2022-08-07T13:23:03;95903.75;;;30.24;48.78
43878;BME280;29815;48.184;11.268;2022-08-07T13:26:00;95898.97;;;30.18;48.17
43878;BME280;29815;48.184;11.268;2022-08-07T13:28:34;95901.84;;;30.32;45.74
43878;BME280;29815;48.184;11.268;2022-08-07T13:31:22;95902.66;;;30.43;48.02
43878;BME280;29815;48.184;11.268;2022-08-07T13:34:20;95894.25;;;30.25;44.48
43878;BME280;29815;48.184;11.268;2022-08-07T13:37:09;95898.13;;;30.10;45.37
43878;BME280;29815;48.184;11.268;2022-08-07T13:40:18;95897.72;;;30.05;48.31
43878;BME280;29815;48.184;11.268;2022-08-07T13:43:11;95889.00;;;30.13;48.12
43878;BME280;29815;48.184;11.268;2022-08-07T13:45:45;95891.03;;;30.16;47.20
43878;BME280;29815;48.184;11.268;2022-08-07T13:48:37;95893.81;;;30.20;46.55
43878;BME280;29815;48.184;11.268;2022-08-07T13:51:08;95899.03;;;30.28;48.69
43878;BME280;29815;48.184;11.268;2022-08-07T13:54:03;95886.72;;;30.26;47.79
43878;BME280;29815;48.184;11.268;2022-08-07T13:56:38;95877.63;;;30.29;47.95
43878;BME280;29815;48.184;11.268;2022-08-07T13:59:20;95881.22;;;30.33;47.60
43878;BME280;29815;48.184;11.268;2022-08-07T14:01:55;95885.94;;;30.29;47.31
43878;BME280;29815;48.184;11.268;2022-08-07T14:04:35;95880.28;;;30.15;48.46
43878;BME280;29815;48.184;11.268;2022-08-07T14:07:19;95880.63;;;29.99;48.06
43878;BME280;29815;48.184;11.268;2022-08-07T14:09:55;95881.28;;;29.85;48.11
43878;BME280;29815;48.184;11.268;2022-08-07T14:12:34;95884.66;;;29.61;45.99
43878;BME280;29815;48.184;11.268;2022-08-07T14:15:16;95882.19;;;29.45;47.25
43878;BME280;29815;48.184;11.268;2022-08-07T14:17:50;95883.66;;;29.36;47.40